createdAt,value
2018-01-20T00:00:33.068Z,7.10
2018-01-20T00:03:01.311Z,9.27
2018-01-20T00:05:29.645Z,7.00
2018-01-20T00:07:57.876Z,6.37
2018-01-20T00:10:38.752Z,10.20
2018-01-20T00:13:07.094Z,9.43
2018-01-20T00:15:35.347Z,7.07
2018-01-20T00:18:03.657Z,7.40
2018-01-20T00:20:31.925Z,8.43
2018-01-20T00:23:00.165Z,7.27
2018-01-20T00:25:29.198Z,9.50
2018-01-20T00:27:57.439Z,7.80
2018-01-20T00:30:26.462Z,6.37
2018-01-20T00:32:54.698Z,9.00
2018-01-20T00:35:23.077Z,6.20
2018-01-20T00:37:51.328Z,5.90
2018-01-20T00:40:19.601Z,7.27
2018-01-20T00:42:47.886Z,10.33
2018-01-20T00:45:16.139Z,9.97
2018-01-20T00:47:44.446Z,9.07
2018-01-20T00:50:12.706Z,9.33
2018-01-20T00:52:40.941Z,6.23
2018-01-20T00:55:09.280Z,11.13
2018-01-20T00:57:37.554Z,10.70
2018-01-20T01:00:05.797Z,9.20
2018-01-20T01:02:34.857Z,9.30
2018-01-20T01:05:03.119Z,7.07
2018-01-20T01:07:31.436Z,8.03
2018-01-20T01:09:59.674Z,8.50
2018-01-20T01:12:27.938Z,6.03
2018-01-20T01:14:56.178Z,9.33
2018-01-20T01:17:24.510Z,9.80
2018-01-20T01:19:52.755Z,5.53
2018-01-20T01:22:21.788Z,6.80
2018-01-20T01:24:50.026Z,9.37
2018-01-20T01:27:19.037Z,9.17
2018-01-20T01:29:47.297Z,12.83
2018-01-20T01:32:16.330Z,9.50
2018-01-20T01:34:44.565Z,10.40
2018-01-20T01:37:12.941Z,10.70
2018-01-20T01:39:41.187Z,9.00
2018-01-20T01:42:09.445Z,5.70
2018-01-20T01:44:37.682Z,8.43
2018-01-20T01:47:05.936Z,7.20
2018-01-20T01:49:34.207Z,5.60
2018-01-20T01:52:03.356Z,7.27
2018-01-20T01:54:31.682Z,8.87
2018-01-20T01:56:59.938Z,8.40
2018-01-20T01:59:28.182Z,7.53
2018-01-20T02:01:56.421Z,9.17
2018-01-20T02:04:24.662Z,8.17
2018-01-20T02:06:54.533Z,7.20
2018-01-20T02:09:22.761Z,11.17
2018-01-20T02:11:51.052Z,10.97
2018-01-20T02:14:19.293Z,9.10
2018-01-20T02:16:47.600Z,10.83
2018-01-20T02:19:16.642Z,10.47
2018-01-20T02:21:44.922Z,8.80
2018-01-20T02:24:13.198Z,6.30
2018-01-20T02:26:41.477Z,8.53
2018-01-20T02:29:09.722Z,8.33
2018-01-20T02:31:38.722Z,8.90
2018-01-20T02:34:07.783Z,7.67
2018-01-20T02:36:36.025Z,8.43
2018-01-20T02:39:04.293Z,5.93
2018-01-20T02:41:32.556Z,8.13
2018-01-20T02:44:01.586Z,8.80
2018-01-20T02:46:29.825Z,7.33
2018-01-20T02:48:58.837Z,9.63
2018-01-20T02:51:27.165Z,8.13
2018-01-20T02:53:55.518Z,7.27
2018-01-20T02:56:23.758Z,11.17
2018-01-20T02:58:52.011Z,7.70
2018-01-20T03:01:20.267Z,6.90
2018-01-20T03:03:48.523Z,6.60
2018-01-20T03:06:16.767Z,9.03
2018-01-20T03:08:45.022Z,6.40
2018-01-20T03:11:13.271Z,7.50
2018-01-20T03:13:41.530Z,7.23
2018-01-20T03:16:10.532Z,5.20
2018-01-20T03:18:39.556Z,5.90
2018-01-20T03:21:07.799Z,5.50
2018-01-20T03:23:36.873Z,7.20
2018-01-20T03:26:05.154Z,5.87
2018-01-20T03:28:33.434Z,6.10
2018-01-20T03:31:01.678Z,7.23
2018-01-20T03:33:29.912Z,8.27
2018-01-20T03:35:58.929Z,6.57
2018-01-20T03:38:27.378Z,6.97
2018-01-20T03:40:55.606Z,7.70
2018-01-20T03:43:23.896Z,7.03
2018-01-20T03:45:52.158Z,8.33
2018-01-20T03:48:20.428Z,8.77
2018-01-20T03:50:48.737Z,4.80
2018-01-20T03:53:16.973Z,6.13
2018-01-20T03:55:45.994Z,4.33
2018-01-20T03:58:14.331Z,4.90
2018-01-20T04:00:42.581Z,5.27
2018-01-20T04:03:10.854Z,4.80
2018-01-20T04:05:39.874Z,5.93
2018-01-20T04:08:08.135Z,6.60
2018-01-20T04:10:36.404Z,7.20
2018-01-20T04:13:04.666Z,4.80
2018-01-20T04:15:32.989Z,5.50
2018-01-20T04:18:01.249Z,7.10
2018-01-20T04:20:29.507Z,4.60
2018-01-20T04:22:57.762Z,6.30
2018-01-20T04:25:26.090Z,6.47
2018-01-20T04:27:54.345Z,5.27
2018-01-20T04:30:23.364Z,5.27
2018-01-20T04:32:51.621Z,4.90
2018-01-20T04:35:20.657Z,6.43
2018-01-20T04:37:48.968Z,5.73
2018-01-20T04:40:17.198Z,7.10
2018-01-20T04:42:45.495Z,7.03
2018-01-20T04:45:13.734Z,6.73
2018-01-20T04:47:42.052Z,7.40
2018-01-20T04:50:10.301Z,5.97
2018-01-20T04:52:39.326Z,6.70
2018-01-20T04:55:07.606Z,7.80
2018-01-20T04:57:35.899Z,8.90
2018-01-20T05:00:04.133Z,7.53
2018-01-20T05:02:33.151Z,7.40
2018-01-20T05:05:01.439Z,6.77
2018-01-20T05:07:29.693Z,5.93
2018-01-20T05:09:58.750Z,8.40
2018-01-20T05:12:27.105Z,7.20
2018-01-20T05:14:55.386Z,7.97
2018-01-20T05:17:23.641Z,5.77
2018-01-20T05:19:51.882Z,7.47
2018-01-20T05:22:20.230Z,6.53
2018-01-20T05:24:48.559Z,8.80
2018-01-20T05:27:16.898Z,6.80
2018-01-20T05:29:45.134Z,6.90
2018-01-20T05:32:14.268Z,6.43
2018-01-20T05:34:42.506Z,5.77
2018-01-20T05:37:11.531Z,6.80
2018-01-20T05:39:39.806Z,8.40
2018-01-20T05:42:08.045Z,7.00
2018-01-20T05:44:36.385Z,8.77
2018-01-20T05:47:04.674Z,6.17
2018-01-20T05:49:33.269Z,10.60
2018-01-20T05:52:01.487Z,6.47
2018-01-20T05:54:31.008Z,5.83
2018-01-20T05:57:00.019Z,5.20
2018-01-20T05:59:28.268Z,6.60
2018-01-20T06:01:57.285Z,8.40
2018-01-20T06:04:26.313Z,4.97
2018-01-20T06:06:54.630Z,4.57
2018-01-20T06:09:22.858Z,6.10
2018-01-20T06:11:51.096Z,4.40
2018-01-20T06:14:19.356Z,4.23
2018-01-20T06:16:47.601Z,3.67
2018-01-20T06:19:15.851Z,4.40
2018-01-20T06:21:44.886Z,3.70
2018-01-20T06:24:13.166Z,5.53
2018-01-20T06:26:41.441Z,3.50
2018-01-20T06:29:09.730Z,3.73
2018-01-20T06:31:38.014Z,4.27
2018-01-20T06:34:06.270Z,4.27
2018-01-20T06:36:34.610Z,4.07
2018-01-20T06:39:02.833Z,3.83
2018-01-20T06:41:31.144Z,4.53
2018-01-20T06:43:59.404Z,3.20
2018-01-20T06:46:27.658Z,4.20
2018-01-20T06:48:56.728Z,5.23
2018-01-20T06:51:25.078Z,6.23
2018-01-20T06:53:54.821Z,4.60
2018-01-20T06:56:23.122Z,5.40
2018-01-20T06:58:51.394Z,4.60
2018-01-20T07:01:19.647Z,4.80
2018-01-20T07:03:47.887Z,4.00
2018-01-20T07:06:16.154Z,4.03
2018-01-20T07:08:45.216Z,4.67
2018-01-20T07:11:13.569Z,4.00
2018-01-20T07:13:41.853Z,4.97
2018-01-20T07:16:10.117Z,5.83
2018-01-20T07:18:39.128Z,6.83
2018-01-20T07:21:07.437Z,7.03
2018-01-20T07:23:35.695Z,3.90
2018-01-20T07:26:03.966Z,5.10
2018-01-20T07:28:32.203Z,5.50
2018-01-20T07:31:01.219Z,4.47
2018-01-20T07:33:30.238Z,5.47
2018-01-20T07:35:58.481Z,4.43
2018-01-20T07:38:27.530Z,4.47
2018-01-20T07:40:55.809Z,6.23
2018-01-20T07:43:24.084Z,4.27
2018-01-20T07:45:52.345Z,6.60
2018-01-20T07:48:21.341Z,4.83
2018-01-20T07:50:49.593Z,4.67
2018-01-20T07:53:17.838Z,5.87
2018-01-20T07:55:46.101Z,4.93
2018-01-20T07:58:14.338Z,4.13
2018-01-20T08:00:43.363Z,4.60
2018-01-20T08:03:11.605Z,4.60
2018-01-20T08:05:39.838Z,4.87
2018-01-20T08:08:08.114Z,6.70
2018-01-20T08:10:36.390Z,5.80
2018-01-20T08:13:04.650Z,5.30
2018-01-20T08:15:33.654Z,6.30
2018-01-20T08:18:01.922Z,6.60
2018-01-20T08:20:30.232Z,9.60
2018-01-20T08:22:58.483Z,6.00
2018-01-20T08:25:27.491Z,5.77
2018-01-20T08:27:55.802Z,6.23
2018-01-20T08:30:24.045Z,6.63
2018-01-20T08:32:53.094Z,5.80
2018-01-20T08:35:21.357Z,7.83
2018-01-20T08:37:49.649Z,8.17
2018-01-20T08:40:17.881Z,10.93
2018-01-20T08:42:46.909Z,5.53
2018-01-20T08:45:15.155Z,8.17
2018-01-20T08:47:44.191Z,8.90
2018-01-20T08:50:12.469Z,6.47
2018-01-20T08:52:40.743Z,6.37
2018-01-20T08:55:08.995Z,7.97
2018-01-20T08:57:38.059Z,6.17
2018-01-20T09:00:07.070Z,7.27
2018-01-20T09:02:35.409Z,9.13
2018-01-20T09:05:03.675Z,7.53
2018-01-20T09:07:31.934Z,6.47
2018-01-20T09:10:00.195Z,10.17
2018-01-20T09:12:28.451Z,9.90
2018-01-20T09:14:56.730Z,6.63
2018-01-20T09:17:25.082Z,8.80
2018-01-20T09:19:53.395Z,8.90
2018-01-20T09:22:21.647Z,7.87
2018-01-20T09:24:49.915Z,7.40
2018-01-20T09:27:18.208Z,7.90
2018-01-20T09:29:46.474Z,7.77
2018-01-20T09:32:14.715Z,10.87
2018-01-20T09:34:43.771Z,8.37
2018-01-20T09:37:12.013Z,9.57
2018-01-20T09:39:41.062Z,8.73
2018-01-20T09:42:09.309Z,7.20
2018-01-20T09:44:37.570Z,7.97
2018-01-20T09:47:06.617Z,8.00
2018-01-20T09:49:34.916Z,10.17
2018-01-20T09:52:03.158Z,8.10
2018-01-20T09:54:31.412Z,9.20
2018-01-20T09:57:00.457Z,10.23
2018-01-20T09:59:28.702Z,6.63
2018-01-20T10:01:56.951Z,7.87
2018-01-20T10:04:25.798Z,9.87
2018-01-20T10:06:54.037Z,7.13
2018-01-20T10:09:23.962Z,6.67
2018-01-20T10:11:52.201Z,8.03
2018-01-20T10:14:20.463Z,8.63
2018-01-20T10:16:48.698Z,7.73
2018-01-20T10:19:17.718Z,7.03
2018-01-20T10:21:45.960Z,11.57
2018-01-20T10:24:15.002Z,7.17
2018-01-20T10:26:43.257Z,6.80
2018-01-20T10:29:12.264Z,7.73
2018-01-20T10:31:40.506Z,6.27
2018-01-20T10:34:09.225Z,5.77
2018-01-20T10:36:37.473Z,9.47
2018-01-20T10:39:05.812Z,12.27
2018-01-20T10:41:34.111Z,11.73
2018-01-20T10:44:02.364Z,6.93
2018-01-20T10:46:30.670Z,6.73
2018-01-20T10:48:58.946Z,13.10
2018-01-20T10:51:27.396Z,9.30
2018-01-20T10:53:55.641Z,8.90
2018-01-20T10:56:23.989Z,10.07
2018-01-20T10:58:52.259Z,6.73
2018-01-20T11:01:20.512Z,9.33
2018-01-20T11:03:48.757Z,7.10
2018-01-20T11:06:17.605Z,7.00
2018-01-20T11:08:45.845Z,8.83
2018-01-20T11:11:14.874Z,6.27
2018-01-20T11:13:43.111Z,6.10
2018-01-20T11:16:11.369Z,7.00
2018-01-20T11:18:39.627Z,5.00
2018-01-20T11:21:07.915Z,12.27
2018-01-20T11:23:36.294Z,7.60
2018-01-20T11:26:04.633Z,4.93
2018-01-20T11:28:33.643Z,7.27
2018-01-20T11:31:02.674Z,7.07
2018-01-20T11:33:30.925Z,5.93
2018-01-20T11:35:59.931Z,7.00
2018-01-20T11:38:28.218Z,9.43
2018-01-20T11:40:56.533Z,7.43
2018-01-20T11:43:24.798Z,9.10
2018-01-20T11:45:53.086Z,6.53
2018-01-20T11:48:21.334Z,7.00
2018-01-20T11:50:49.619Z,8.33
2018-01-20T11:53:17.870Z,6.03
2018-01-20T11:55:46.910Z,6.07
2018-01-20T11:58:15.234Z,6.13
2018-01-20T12:00:44.189Z,6.27
2018-01-20T12:03:12.469Z,5.30
2018-01-20T12:05:40.789Z,6.87
2018-01-20T12:08:09.139Z,4.77
2018-01-20T12:10:37.420Z,6.70
2018-01-20T12:13:05.678Z,7.40
2018-01-20T12:15:33.927Z,9.10
2018-01-20T12:18:02.967Z,5.17
2018-01-20T12:20:31.218Z,7.30
2018-01-20T12:23:00.234Z,4.93
2018-01-20T12:25:28.647Z,6.50
2018-01-20T12:27:57.054Z,7.30
2018-01-20T12:30:25.291Z,8.13
2018-01-20T12:32:54.532Z,6.30
2018-01-20T12:35:22.765Z,6.70
2018-01-20T12:37:52.402Z,7.50
2018-01-20T12:40:20.673Z,5.67
2018-01-20T12:42:49.142Z,6.13
2018-01-20T12:45:17.411Z,10.17
2018-01-20T12:47:46.409Z,6.90
2018-01-20T12:50:14.678Z,7.17
2018-01-20T12:52:43.677Z,9.43
2018-01-20T12:55:12.742Z,8.73
2018-01-20T12:57:40.999Z,6.43
2018-01-20T13:00:09.267Z,7.70
2018-01-20T13:02:37.552Z,7.40
2018-01-20T13:05:05.825Z,7.77
2018-01-20T13:07:34.317Z,6.87
2018-01-20T13:10:02.593Z,6.90
2018-01-20T13:12:30.883Z,14.20
2018-01-20T13:14:59.162Z,5.70
2018-01-20T13:17:27.421Z,6.70
2018-01-20T13:19:55.720Z,5.27
2018-01-20T13:22:24.011Z,6.73
2018-01-20T13:24:52.270Z,5.10
2018-01-20T13:27:20.574Z,6.83
2018-01-20T13:29:48.829Z,5.90
2018-01-20T13:32:17.069Z,9.93
2018-01-20T13:34:45.458Z,5.60
2018-01-20T13:37:14.509Z,5.77
2018-01-20T13:39:42.769Z,6.97
2018-01-20T13:42:11.020Z,4.97
2018-01-20T13:44:39.278Z,7.00
2018-01-20T13:47:09.203Z,5.50
2018-01-20T13:49:37.450Z,6.10
2018-01-20T13:52:05.733Z,5.53
2018-01-20T13:54:34.011Z,9.00
2018-01-20T13:57:02.290Z,4.97
2018-01-20T13:59:30.771Z,4.47
2018-01-20T14:01:59.055Z,4.20
2018-01-20T14:04:27.299Z,4.67
2018-01-20T14:06:56.332Z,3.70
2018-01-20T14:09:24.588Z,3.23
2018-01-20T14:11:52.850Z,4.07
2018-01-20T14:14:21.861Z,3.67
2018-01-20T14:16:50.114Z,3.40
2018-01-20T14:19:19.158Z,4.70
2018-01-20T14:21:47.418Z,3.10
2018-01-20T14:24:15.719Z,3.50
2018-01-20T14:26:44.003Z,2.80
2018-01-20T14:29:12.241Z,3.00
2018-01-20T14:31:43.602Z,3.53
2018-01-20T14:34:11.860Z,4.07
2018-01-20T14:36:40.190Z,3.20
2018-01-20T14:39:08.435Z,3.30
2018-01-20T14:41:37.499Z,3.30
2018-01-20T14:44:05.780Z,3.00
2018-01-20T14:46:34.164Z,2.73
2018-01-20T14:49:02.378Z,2.90
2018-01-20T14:51:33.175Z,2.73
2018-01-20T14:54:01.411Z,3.10
2018-01-20T14:56:29.688Z,4.30
2018-01-20T14:59:00.978Z,3.70
2018-01-20T15:01:29.520Z,3.33
2018-01-20T15:03:57.857Z,3.80
2018-01-20T15:06:26.313Z,3.33
2018-01-20T15:08:54.591Z,3.30
2018-01-20T15:11:22.821Z,3.23
2018-01-20T15:13:53.426Z,3.77
2018-01-20T15:16:22.286Z,6.37
2018-01-20T15:18:50.541Z,4.97
2018-01-20T15:21:19.606Z,3.27
2018-01-20T15:23:47.951Z,5.00
2018-01-20T15:26:16.198Z,4.07
2018-01-20T15:28:45.217Z,4.83
2018-01-20T15:31:13.476Z,4.40
2018-01-20T15:33:42.506Z,5.47
2018-01-20T15:36:10.795Z,3.90
2018-01-20T15:38:39.078Z,3.30
2018-01-20T15:41:07.359Z,3.67
2018-01-20T15:43:35.681Z,4.93
2018-01-20T15:46:03.956Z,4.13
2018-01-20T15:48:32.197Z,4.60
2018-01-20T15:51:00.434Z,4.37
2018-01-20T15:53:29.201Z,4.90
2018-01-20T15:55:57.751Z,4.60
2018-01-20T15:58:26.023Z,3.57
2018-01-20T16:00:54.279Z,3.00
2018-01-20T16:03:23.312Z,3.23
2018-01-20T16:05:51.600Z,4.70
2018-01-20T16:08:20.596Z,4.00
2018-01-20T16:10:48.833Z,4.27
2018-01-20T16:13:17.095Z,3.70
2018-01-20T16:15:45.378Z,4.10
2018-01-20T16:18:13.639Z,3.90
2018-01-20T16:20:42.039Z,3.80
2018-01-20T16:23:10.277Z,3.67
2018-01-20T16:25:38.558Z,4.50
2018-01-20T16:28:06.830Z,3.63
2018-01-20T16:30:35.085Z,4.00
2018-01-20T16:33:03.347Z,4.03
2018-01-20T16:35:31.616Z,4.93
2018-01-20T16:37:59.925Z,4.07
2018-01-20T16:40:28.218Z,5.40
2018-01-20T16:42:56.449Z,6.10
2018-01-20T16:45:24.709Z,7.77
2018-01-20T16:47:52.961Z,6.83
2018-01-20T16:50:21.297Z,7.30
2018-01-20T16:52:49.533Z,9.03
2018-01-20T16:55:17.860Z,8.60
2018-01-20T16:57:46.133Z,10.10
2018-01-20T17:00:14.449Z,10.57
2018-01-20T17:02:43.483Z,13.50
2018-01-20T17:05:11.759Z,10.80
2018-01-20T17:07:40.071Z,10.50
2018-01-20T17:10:08.749Z,12.00
2018-01-20T17:12:37.217Z,10.60
2018-01-20T17:15:05.511Z,13.47
2018-01-20T17:17:33.766Z,11.70
2018-01-20T17:20:02.033Z,11.83
2018-01-20T17:22:30.292Z,11.87
2018-01-20T17:24:59.326Z,13.70
2018-01-20T17:27:27.565Z,13.00
2018-01-20T17:29:56.582Z,11.60
2018-01-20T17:32:25.620Z,12.70
2018-01-20T17:34:53.905Z,13.13
2018-01-20T17:37:22.270Z,12.30
2018-01-20T17:39:50.519Z,15.73
2018-01-20T17:42:19.562Z,13.70
2018-01-20T17:44:47.815Z,13.57
2018-01-20T17:47:16.086Z,12.53
2018-01-20T17:49:44.334Z,11.97
2018-01-20T17:52:13.996Z,14.47
2018-01-20T17:54:42.241Z,13.70
2018-01-20T17:57:11.287Z,11.27
2018-01-20T17:59:39.538Z,14.68
2018-01-20T18:02:07.820Z,14.90
2018-01-20T18:04:36.081Z,10.07
2018-01-20T18:07:05.118Z,10.70
2018-01-20T18:09:33.502Z,14.97
2018-01-20T18:12:01.774Z,13.83
2018-01-20T18:14:30.016Z,13.20
2018-01-20T18:16:59.051Z,11.00
2018-01-20T18:19:27.313Z,9.93
2018-01-20T18:21:56.385Z,13.53
2018-01-20T18:24:24.725Z,9.80
2018-01-20T18:26:53.190Z,12.27
2018-01-20T18:29:22.273Z,11.57
2018-01-20T18:31:50.618Z,11.20
2018-01-20T18:34:18.841Z,10.17
2018-01-20T18:36:47.567Z,8.90
2018-01-20T18:39:15.834Z,11.83
2018-01-20T18:41:44.078Z,10.27
2018-01-20T18:44:13.100Z,12.13
2018-01-20T18:46:41.372Z,15.77
2018-01-20T18:49:09.637Z,11.17
2018-01-20T18:51:38.661Z,16.90
2018-01-20T18:54:06.923Z,9.70
2018-01-20T18:56:35.322Z,9.60
2018-01-20T18:59:03.586Z,13.50
2018-01-20T19:01:31.831Z,13.53
2018-01-20T19:04:00.176Z,12.13
2018-01-20T19:06:28.425Z,11.60
2018-01-20T19:08:57.610Z,15.80
2018-01-20T19:11:26.676Z,16.83
2018-01-20T19:13:55.036Z,15.93
2018-01-20T19:16:23.285Z,17.00
2018-01-20T19:18:51.542Z,10.63
2018-01-20T19:21:20.605Z,13.53
2018-01-20T19:23:48.966Z,12.23
2018-01-20T19:26:17.206Z,10.67
2018-01-20T19:28:46.262Z,11.30
2018-01-20T19:31:14.539Z,12.70
2018-01-20T19:33:42.828Z,11.77
2018-01-20T19:36:12.132Z,10.83
2018-01-20T19:38:40.639Z,18.90
2018-01-20T19:41:08.968Z,13.97
2018-01-20T19:43:37.275Z,14.70
2018-01-20T19:46:05.570Z,16.37
2018-01-20T19:48:33.821Z,17.17
2018-01-20T19:51:02.087Z,18.30
2018-01-20T19:53:30.403Z,14.50
2018-01-20T19:55:58.754Z,13.53
2018-01-20T19:58:26.999Z,13.53
2018-01-20T20:00:56.030Z,12.30
2018-01-20T20:03:24.277Z,15.03
2018-01-20T20:05:52.835Z,13.07
2018-01-20T20:08:21.075Z,9.83
2018-01-20T20:10:49.342Z,8.10
2018-01-20T20:13:17.631Z,9.87
2018-01-20T20:15:45.927Z,11.10
2018-01-20T20:18:14.353Z,9.37
2018-01-20T20:20:42.582Z,12.40
2018-01-20T20:23:10.832Z,10.73
2018-01-20T20:25:39.482Z,11.10
2018-01-20T20:28:08.114Z,9.27
2018-01-20T20:30:37.165Z,8.10
2018-01-20T20:33:05.716Z,11.60
2018-01-20T20:35:34.031Z,7.90
2018-01-20T20:38:02.618Z,8.10
2018-01-20T20:40:31.093Z,13.30
2018-01-20T20:43:00.409Z,7.93
2018-01-20T20:45:29.119Z,12.10
2018-01-20T20:47:57.483Z,9.63
2018-01-20T20:50:26.789Z,16.80
2018-01-20T20:52:55.271Z,17.70
2018-01-20T20:55:23.856Z,23.10
2018-01-20T20:57:52.506Z,22.30
2018-01-20T21:00:21.751Z,25.10
2018-01-20T21:02:50.394Z,20.17
2018-01-20T21:05:19.130Z,16.23
2018-01-20T21:07:48.546Z,23.93
2018-01-20T21:10:17.566Z,18.00
2018-01-20T21:12:46.186Z,14.63
2018-01-20T21:15:15.726Z,15.70
2018-01-20T21:17:44.525Z,16.30
2018-01-20T21:20:14.901Z,16.27
2018-01-20T21:22:44.382Z,15.73
2018-01-20T21:25:13.462Z,13.83
2018-01-20T21:27:41.920Z,22.97
2018-01-20T21:30:10.264Z,13.50
2018-01-20T21:32:38.889Z,12.77
2018-01-20T21:35:08.239Z,11.93
2018-01-20T21:37:36.810Z,16.67
2018-01-20T21:40:05.462Z,12.83
2018-01-20T21:42:34.184Z,14.10
2018-01-20T21:45:03.902Z,14.10
2018-01-20T21:47:32.394Z,13.53
2018-01-20T21:50:01.555Z,12.87
2018-01-20T21:52:30.074Z,14.43
2018-01-20T21:54:58.462Z,21.27
2018-01-20T21:57:26.814Z,14.17
2018-01-20T21:59:55.057Z,12.27
2018-01-20T22:02:23.374Z,12.43
2018-01-20T22:04:51.641Z,15.87
2018-01-20T22:07:19.933Z,14.17
2018-01-20T22:09:48.198Z,14.97
2018-01-20T22:12:16.480Z,17.50
2018-01-20T22:14:44.781Z,14.47
2018-01-20T22:17:14.575Z,15.37
2018-01-20T22:19:42.837Z,13.63
2018-01-20T22:22:11.085Z,14.13
2018-01-20T22:24:40.122Z,17.03
2018-01-20T22:27:08.386Z,16.87
2018-01-20T22:29:36.649Z,18.50
2018-01-20T22:32:05.657Z,20.80
2018-01-20T22:34:34.586Z,18.50
2018-01-20T22:37:02.833Z,28.13
2018-01-20T22:39:31.155Z,16.23
2018-01-20T22:41:59.396Z,19.20
2018-01-20T22:44:27.693Z,17.23
2018-01-20T22:46:55.982Z,19.10
2018-01-20T22:49:24.297Z,18.93
2018-01-20T22:51:52.574Z,19.23
2018-01-20T22:54:20.918Z,18.17
2018-01-20T22:56:49.251Z,21.70
2018-01-20T22:59:17.492Z,23.63
2018-01-20T23:01:45.753Z,20.67
2018-01-20T23:04:14.055Z,25.33
2018-01-20T23:06:42.347Z,23.17
2018-01-20T23:09:10.713Z,23.80
2018-01-20T23:11:38.994Z,22.30
2018-01-20T23:14:07.282Z,20.00
2018-01-20T23:16:35.531Z,20.93
2018-01-20T23:19:03.821Z,19.97
2018-01-20T23:21:32.124Z,21.27
2018-01-20T23:24:00.395Z,17.50
2018-01-20T23:26:28.645Z,20.80
2018-01-20T23:28:57.673Z,20.57
2018-01-20T23:31:25.944Z,17.60
2018-01-20T23:33:54.254Z,17.90
2018-01-20T23:36:22.529Z,18.50
2018-01-20T23:38:50.779Z,15.90
2018-01-20T23:41:19.038Z,20.23
2018-01-20T23:43:48.078Z,18.73
2018-01-20T23:46:16.325Z,18.77
2018-01-20T23:48:45.344Z,20.23
2018-01-20T23:51:13.634Z,19.60
2018-01-20T23:53:41.882Z,20.23
2018-01-20T23:56:10.924Z,22.23
2018-01-20T23:58:39.201Z,17.60
